createdAt,value
2022-10-30T00:02:10.169Z,30.17
2022-10-30T00:04:50.075Z,30.45
2022-10-30T00:13:10.840Z,28.13
2022-10-30T00:15:59.501Z,29.98
2022-10-30T00:19:00.722Z,31.52
2022-10-30T00:27:15.009Z,30.63
2022-10-30T00:30:18.705Z,31.98
2022-10-30T00:33:44.564Z,31.95
2022-10-30T00:36:04.852Z,33.30
2022-10-30T00:38:54.556Z,30.75
2022-10-30T00:44:31.974Z,27.63
2022-10-30T00:50:08.209Z,29.60
2022-10-30T04:37:18.917Z,21.70
2022-10-30T04:39:51.789Z,23.13
2022-10-30T04:45:24.762Z,25.83
2022-10-30T04:48:49.965Z,37.33
2022-10-30T04:51:16.072Z,36.95
2022-10-30T04:53:43.295Z,28.13
2022-10-30T04:56:10.630Z,29.80
2022-10-30T04:58:37.833Z,32.58
2022-10-30T05:01:06.426Z,39.35
2022-10-30T05:03:33.748Z,29.15
2022-10-30T05:06:02.491Z,26.92
2022-10-30T05:08:29.975Z,23.48
2022-10-30T05:10:57.583Z,30.33
2022-10-30T05:13:24.705Z,31.23
2022-10-30T05:15:51.889Z,26.55
2022-10-30T05:18:19.482Z,28.35
2022-10-30T05:20:47.872Z,25.13
2022-10-30T05:23:15.016Z,26.92
2022-10-30T05:27:03.476Z,24.77
2022-10-30T05:29:24.020Z,22.75
2022-10-30T05:31:53.711Z,29.75
2022-10-30T05:34:21.045Z,34.80
2022-10-30T05:36:48.279Z,24.13
2022-10-30T05:39:15.368Z,28.33
2022-10-30T05:41:42.490Z,21.95
2022-10-30T05:44:18.146Z,27.60
2022-10-30T05:49:22.916Z,22.70
2022-10-30T05:51:50.069Z,25.25
2022-10-30T05:54:17.106Z,27.88
2022-10-30T05:56:44.167Z,26.02
2022-10-30T05:59:11.271Z,26.58
2022-10-30T06:04:11.189Z,26.98
2022-10-30T06:06:38.256Z,24.23
2022-10-30T06:09:05.433Z,21.55
2022-10-30T06:11:32.641Z,20.60
2022-10-30T06:13:59.768Z,18.40
2022-10-30T06:16:26.914Z,24.08
2022-10-30T06:18:54.059Z,19.02
2022-10-30T06:21:21.189Z,21.25
2022-10-30T06:23:49.012Z,23.90
2022-10-30T06:26:16.141Z,20.50
2022-10-30T06:28:43.365Z,28.05
2022-10-30T06:31:10.651Z,23.30
2022-10-30T06:33:37.849Z,28.45
2022-10-30T06:36:05.162Z,31.80
2022-10-30T06:38:32.307Z,23.25
2022-10-30T06:40:59.455Z,22.88
2022-10-30T06:43:26.584Z,26.42
2022-10-30T06:45:53.683Z,22.17
2022-10-30T06:48:20.769Z,32.65
2022-10-30T06:50:47.826Z,26.30
2022-10-30T06:53:14.919Z,27.10
2022-10-30T06:55:42.050Z,30.90
2022-10-30T06:58:09.123Z,40.10
2022-10-30T07:00:36.285Z,44.50
2022-10-30T07:03:04.645Z,46.38
2022-10-30T11:21:30.265Z,17.95
2022-10-30T11:23:57.594Z,17.23
2022-10-30T11:26:24.940Z,12.63
2022-10-30T11:28:56.985Z,16.45
2022-10-30T11:31:27.752Z,17.15
2022-10-30T11:33:58.008Z,15.55
2022-10-30T11:36:30.891Z,15.18
2022-10-30T11:39:02.222Z,13.82
2022-10-30T11:41:29.486Z,18.75
2022-10-30T11:43:58.433Z,12.75
2022-10-30T11:46:26.004Z,15.50
2022-10-30T11:48:56.585Z,21.48
2022-10-30T11:51:53.454Z,13.82
2022-10-30T11:54:33.348Z,12.82
2022-10-30T11:57:07.785Z,10.18
2022-10-30T11:59:35.402Z,11.75
2022-10-30T12:02:04.635Z,13.40
2022-10-30T12:04:33.241Z,18.33
2022-10-30T12:07:18.157Z,10.35
2022-10-30T12:09:46.510Z,15.75
2022-10-30T12:12:21.336Z,11.40
2022-10-30T12:14:48.693Z,15.77
2022-10-30T12:17:18.721Z,13.75
2022-10-30T12:19:47.077Z,13.75
2022-10-30T12:22:25.088Z,11.38
2022-10-30T12:24:53.876Z,12.32
2022-10-30T12:27:22.632Z,13.40
2022-10-30T12:30:14.545Z,10.52
2022-10-30T12:32:46.843Z,14.00
2022-10-30T12:35:28.433Z,15.00
2022-10-30T12:37:59.098Z,9.35
2022-10-30T12:40:35.013Z,13.68
2022-10-30T12:43:09.954Z,13.65
2022-10-30T12:45:41.347Z,13.18
2022-10-30T12:48:31.652Z,10.43
2022-10-30T12:51:22.945Z,18.90
2022-10-30T12:54:10.410Z,9.65
2022-10-30T12:56:39.587Z,11.05
2022-10-30T12:59:34.295Z,8.95
2022-10-30T13:02:23.320Z,10.00
2022-10-30T13:04:53.196Z,8.40
2022-10-30T13:07:32.779Z,9.80
2022-10-30T13:10:09.736Z,12.88
2022-10-30T13:12:46.933Z,11.55
2022-10-30T13:15:40.813Z,13.75
2022-10-30T13:18:21.786Z,9.25
2022-10-30T13:20:57.047Z,9.40
2022-10-30T13:23:28.465Z,11.80
2022-10-30T13:25:58.710Z,13.35
2022-10-30T13:28:27.996Z,9.88
2022-10-30T13:50:48.350Z,10.98
2022-10-30T14:22:33.519Z,8.57
2022-10-30T14:25:02.202Z,9.10
2022-10-30T14:27:30.584Z,12.40
2022-10-30T14:29:58.589Z,12.13
2022-10-30T14:32:25.859Z,13.68
2022-10-30T14:34:56.079Z,13.85
2022-10-30T14:37:29.760Z,10.60
2022-10-30T14:39:59.276Z,11.60
2022-10-30T14:42:53.787Z,12.68
2022-10-30T14:46:01.203Z,6.70
2022-10-30T14:48:43.733Z,13.65
2022-10-30T14:52:00.933Z,10.93
2022-10-30T14:54:54.620Z,12.75
2022-10-30T14:57:41.842Z,10.43
2022-10-30T15:00:33.807Z,8.48
2022-10-30T15:03:32.861Z,10.35
2022-10-30T15:08:57.760Z,15.43
2022-10-30T15:11:44.468Z,14.45
2022-10-30T15:14:21.266Z,11.38
2022-10-30T15:17:09.553Z,16.80
2022-10-30T15:19:36.902Z,11.27
2022-10-30T15:22:07.042Z,6.78
2022-10-30T15:24:37.569Z,9.95
2022-10-30T15:27:05.026Z,6.47
2022-10-30T15:29:36.906Z,12.05
2022-10-30T15:32:24.592Z,12.25
2022-10-30T15:34:56.293Z,8.88
2022-10-30T15:37:23.880Z,10.33
2022-10-30T15:39:51.318Z,11.75
2022-10-30T15:42:18.647Z,9.75
2022-10-30T15:44:47.098Z,12.23
2022-10-30T15:47:16.335Z,6.70
2022-10-30T15:49:49.519Z,12.18
2022-10-30T15:52:24.149Z,10.90
2022-10-30T15:55:06.147Z,7.45
2022-10-30T16:00:28.502Z,11.95
2022-10-30T16:03:03.660Z,9.00
2022-10-30T16:05:31.525Z,12.38
2022-10-30T16:08:00.340Z,9.25
2022-10-30T16:10:30.795Z,9.23
2022-10-30T16:13:01.253Z,8.27
2022-10-30T16:15:30.906Z,12.00
2022-10-30T16:18:04.085Z,14.43
2022-10-30T16:20:31.800Z,14.45
2022-10-30T16:22:59.728Z,10.18
2022-10-30T16:25:45.914Z,10.00
2022-10-30T16:28:43.462Z,10.85
2022-10-30T16:31:16.172Z,9.52
2022-10-30T16:36:17.011Z,10.93
2022-10-30T16:38:46.964Z,13.82
2022-10-30T16:41:15.773Z,11.30
2022-10-30T16:43:48.627Z,13.85
2022-10-30T16:46:15.839Z,17.27
2022-10-30T16:48:45.090Z,12.45
2022-10-30T16:51:16.052Z,11.93
2022-10-30T16:53:47.843Z,11.70
2022-10-30T16:56:20.384Z,14.97
2022-10-30T16:58:47.926Z,11.70
2022-10-30T17:01:15.415Z,11.43
2022-10-30T17:03:43.259Z,11.32
2022-10-30T17:06:27.689Z,13.93
2022-10-30T17:08:55.542Z,14.48
2022-10-30T17:11:34.943Z,16.38
2022-10-30T17:14:05.056Z,15.02
2022-10-30T17:16:33.733Z,21.02
2022-10-30T17:19:02.215Z,16.08
2022-10-30T17:21:39.714Z,13.48
2022-10-30T17:24:07.108Z,15.90
2022-10-30T17:26:39.194Z,14.68
2022-10-30T17:29:06.403Z,17.55
2022-10-30T17:31:36.775Z,14.07
2022-10-30T17:34:22.275Z,16.60
2022-10-30T17:36:49.934Z,12.50
2022-10-30T17:39:17.323Z,14.02
2022-10-30T17:41:46.120Z,16.15
2022-10-30T17:44:21.835Z,15.10
2022-10-30T17:46:51.014Z,15.60
2022-10-30T17:49:29.170Z,26.38
2022-10-30T17:51:56.869Z,15.38
2022-10-30T17:54:24.012Z,15.13
2022-10-30T17:56:51.626Z,16.17
2022-10-30T17:59:18.861Z,22.27
2022-10-30T18:01:53.722Z,13.07
2022-10-30T18:04:21.630Z,12.32
2022-10-30T18:06:49.401Z,17.90
2022-10-30T18:09:16.735Z,13.52
2022-10-30T18:11:44.286Z,14.32
2022-10-30T18:14:12.141Z,20.67
2022-10-30T18:16:39.588Z,14.35
2022-10-30T18:19:10.017Z,16.75
2022-10-30T18:21:37.209Z,16.00
2022-10-30T18:24:09.080Z,13.07
2022-10-30T18:26:40.277Z,14.45
2022-10-30T18:29:08.157Z,16.43
2022-10-30T18:31:35.297Z,13.93
2022-10-30T18:34:02.549Z,13.73
2022-10-30T18:36:29.708Z,11.93
2022-10-30T18:38:58.129Z,21.35
2022-10-30T18:41:31.217Z,18.10
2022-10-30T18:43:58.537Z,13.70
2022-10-30T18:46:26.045Z,19.27
2022-10-30T18:48:54.892Z,13.82
2022-10-30T18:51:26.336Z,21.23
2022-10-30T18:53:54.912Z,20.90
2022-10-30T18:56:23.310Z,18.63
2022-10-30T18:58:54.813Z,16.60
2022-10-30T19:01:26.017Z,18.95
2022-10-30T19:03:53.414Z,23.33
2022-10-30T19:06:22.641Z,21.17
2022-10-30T19:08:50.168Z,24.95
2022-10-30T19:11:24.019Z,27.17
2022-10-30T19:13:52.920Z,25.05
2022-10-30T19:16:20.900Z,23.08
2022-10-30T19:18:48.873Z,24.48
2022-10-30T19:21:17.299Z,25.00
2022-10-30T19:23:44.641Z,23.80
2022-10-30T19:26:14.671Z,28.70
2022-10-30T19:28:42.425Z,23.83
2022-10-30T19:31:13.690Z,21.55
2022-10-30T19:33:40.937Z,20.65
2022-10-30T19:36:25.257Z,20.90
2022-10-30T19:38:52.634Z,21.30
2022-10-30T19:41:20.097Z,20.25
2022-10-30T19:43:47.283Z,22.23
2022-10-30T19:46:15.473Z,21.60
2022-10-30T19:48:57.197Z,19.95
2022-10-30T19:51:25.315Z,21.77
2022-10-30T19:53:54.223Z,22.35
2022-10-30T19:56:22.114Z,22.52
2022-10-30T19:58:52.053Z,20.17
2022-10-30T20:01:19.633Z,24.30
2022-10-30T20:03:48.394Z,22.50
2022-10-30T20:06:15.796Z,25.40
2022-10-30T20:08:45.023Z,27.92
2022-10-30T20:11:12.471Z,25.38
2022-10-30T20:13:42.303Z,22.98
2022-10-30T20:16:11.684Z,22.80
2022-10-30T20:18:39.070Z,24.67
2022-10-30T20:21:11.608Z,29.10
2022-10-30T20:23:38.959Z,24.40
2022-10-30T20:26:18.163Z,28.95
2022-10-30T20:28:45.752Z,26.00
2022-10-30T20:31:13.801Z,30.50
2022-10-30T20:33:42.525Z,32.45
2022-10-30T20:36:12.330Z,29.63
2022-10-30T20:38:40.314Z,40.05
2022-10-30T20:41:07.949Z,31.27
2022-10-30T20:43:39.211Z,32.65
2022-10-30T20:46:09.197Z,30.10
2022-10-30T20:48:37.814Z,28.13
2022-10-30T20:51:09.754Z,32.20
2022-10-30T20:53:37.055Z,26.83
2022-10-30T20:56:04.458Z,29.42
2022-10-30T20:58:31.699Z,25.48
2022-10-30T21:00:58.971Z,28.27
2022-10-30T21:03:26.787Z,26.85
2022-10-30T21:05:58.318Z,32.65
2022-10-30T21:08:26.189Z,25.15
2022-10-30T21:10:53.282Z,26.00
2022-10-30T21:13:20.588Z,23.45
2022-10-30T21:15:47.710Z,27.10
2022-10-30T21:18:14.998Z,24.55
2022-10-30T21:20:42.113Z,20.30
2022-10-30T21:23:09.661Z,24.15
2022-10-30T21:25:39.875Z,29.50
2022-10-30T21:28:07.004Z,29.10
2022-10-30T21:30:40.136Z,28.02
2022-10-30T21:33:07.229Z,29.88
2022-10-30T21:35:40.454Z,24.95
2022-10-30T21:38:07.587Z,26.80
2022-10-30T21:40:43.514Z,27.17
2022-10-30T21:43:11.092Z,21.90
2022-10-30T21:45:38.574Z,29.00
2022-10-30T21:48:05.729Z,30.00
2022-10-30T21:50:39.793Z,30.92
2022-10-30T21:53:07.003Z,25.75
2022-10-30T21:55:40.861Z,23.73
2022-10-30T21:58:07.953Z,22.35
2022-10-30T22:00:35.039Z,20.25
2022-10-30T22:03:02.127Z,25.17
2022-10-30T22:09:14.746Z,24.70
2022-10-30T22:33:44.752Z,23.85
2022-10-30T22:36:20.871Z,21.85
2022-10-30T22:38:48.481Z,30.25
2022-10-30T22:41:17.107Z,31.83
2022-10-30T22:43:46.680Z,27.73
2022-10-30T22:46:14.630Z,33.28
2022-10-30T22:48:44.742Z,26.70
2022-10-30T22:51:15.590Z,28.48
2022-10-30T22:53:44.312Z,23.40
2022-10-30T22:56:12.517Z,25.13
2022-10-30T22:58:39.673Z,29.65
2022-10-30T23:01:11.420Z,29.27
2022-10-30T23:03:41.853Z,27.03
2022-10-30T23:06:09.683Z,34.20
2022-10-30T23:08:39.585Z,23.45
2022-10-30T23:11:07.822Z,25.05
2022-10-30T23:13:36.137Z,25.85
2022-10-30T23:16:04.707Z,25.95
2022-10-30T23:18:37.982Z,22.80
2022-10-30T23:21:10.304Z,24.75
2022-10-30T23:23:47.635Z,25.70
2022-10-30T23:26:21.252Z,25.83
2022-10-30T23:28:54.986Z,27.38
2022-10-30T23:31:22.343Z,26.58
2022-10-30T23:33:56.182Z,31.13
2022-10-30T23:36:23.737Z,27.58
2022-10-30T23:38:59.720Z,24.98
2022-10-30T23:41:28.242Z,29.77
2022-10-30T23:43:58.052Z,26.08
2022-10-30T23:46:25.685Z,23.85
2022-10-30T23:48:52.942Z,29.75
2022-10-30T23:51:20.728Z,30.75
2022-10-30T23:53:48.036Z,31.70
2022-10-30T23:56:15.847Z,29.33
2022-10-30T23:58:49.852Z,30.67
